Bessemer, AL (35022)

7:25 PM CDT on May 23, 2017 (GMT -0500)
alabama | | Change Station

Elev 525 ft 33.35 °N, 86.93 °W | Updated 6 seconds ago

Mostly Cloudy
Mostly Cloudy
68.4 °F
Feels Like 68.4 °F
N
0.0
Wind Variable Wind from North
Gusts 1.0 mph

Today
High -- | Low -- °F
--% Chance of Precip.
Yesterday
High -- | Low -- °F
Precip. -- in
Pressure 29.68 in
Visibility 9.0 miles
Clouds Scattered Clouds 900 ft
Scattered Clouds 1500 ft
Overcast 4000 ft
Dew Point 67 °F
Humidity 96%
Rainfall 0.20 in
Snow Depth Not available.
5:42 AM 7:46 PM
Waning Crescent, 5% visible
SPECI KEET 240021Z AUTO 00000KT 9SM VCTS -RA SCT009 SCT015 OVC040 21/21 A2968 RMK AO2 LTG DSNT E-SW RAB09 TSE20 P0000 T02110206 $
Pressure 29.68 in
Visibility 9.0 miles
Clouds Scattered Clouds 900 ft
Scattered Clouds 1500 ft
Overcast 4000 ft
Dew Point 67 °F
Humidity 96%
Rainfall 0.20 in
Snow Depth Not available.
5:42 AM 7:46 PM
Waning Crescent, 5% visible
SPECI KEET 240021Z AUTO 00000KT 9SM VCTS -RA SCT009 SCT015 OVC040 21/21 A2968 RMK AO2 LTG DSNT E-SW RAB09 TSE20 P0000 T02110206 $

Get Severe Weather Alerts

Thanks for signing up!

Be on the lookout for a verification email in your inbox.

You'll start receiving the daily forecast at 6 AM.

×

10-Day Weather Forecast

Almanac

Astronomy

May. 23, 2017 Rise Set
Actual Time
Civil Twilight
Nautical Twilight
Astronomical Twilight
Moon
Length of Visible Light
Length of Day
Tomorrow will be .
, % of the Moon is Illuminated

Today's Extremes

State Highs State Lows

Community

WunderPhotos

Category 6

Welcome to Category 6. This is the collective home for Weather Underground's featured writeups by Dr. Jeff Masters (right), Bob Henson (left), Chris Burt, and other regular contributors.

Nearby

Air Quality

  Air Quality AQ Index Pollutant
Not available.

Snow Depth

Station Depth Elevation

Earthquake Activity

City Distance Mag. Time & Date
Minimum magnitude displayed is 2.5.

Coastal Water Temperatures

Place Temperature

Stations

Nearby Weather Stations

Station Location Temp. Windchill Dew Point Humidity Wind Precip. Elev Updated Type
                   

Watches & Warnings

There are currently no watches in effect.